Flag for USA

Past Weather in Tullahoma, Tennessee, USA — Yesterday and Last 2 Weeks

Currently: 41 °F. Passing clouds. (Weather station: Deason, USA). See more current weather

Past Weather in Tullahoma — Graph

°F

Tullahoma Temperature Yesterday

Maximum temperature yesterday: 52 °F (at 2:55 pm)
Minimum temperature yesterday: 25 °F (at 6:55 am)
Average temperature yesterday: 39 °F

High & Low Weather Summary for the Past Weeks

 TemperatureHumidityPressure
High55 °F (Jan 14, 2:15 pm)100% (Jan 5, 3:55 am)30.38 "Hg (Jan 5, 3:55 am)
Low19 °F (Jan 13, 3:55 am)29% (Jan 15, 2:55 pm)29.62 "Hg (Jan 15, 12:55 pm)
Average36 °F76%30.08 "Hg
* Reported Jan 4 9:15 pm — Jan 19 9:35 pm, Tullahoma. Weather by CustomWeather, © 2021

Note: Actual official high and low records may vary slightly from our data, if they occured in-between our weather recording intervals... More about our weather records

Tullahoma Weather History for the Previous 24 Hours

Scroll right to see more
 ConditionsComfort  
Time TempWeatherWind HumidityBarometerVisibility
9:35 pm
Tue, Jan 19
43 °FClear.5 mph93%30.30 "Hg10 mi
9:15 pm43 °FClear.5 mph93%30.31 "Hg10 mi
8:55 pm45 °FClear.5 mph87%30.30 "Hg10 mi
8:35 pm45 °FClear.3 mph87%30.28 "Hg10 mi
8:15 pm45 °FClear.5 mph87%30.28 "Hg10 mi
7:35 pm46 °FClear.8 mph82%30.28 "Hg10 mi
7:15 pm46 °FClear.8 mph82%30.27 "Hg10 mi
6:55 pm45 °FPassing clouds.8 mph81%30.27 "Hg10 mi
5:55 pm48 °FClear.5 mph62%30.26 "Hg10 mi
5:35 pm50 °FClear.5 mph58%30.26 "Hg10 mi
5:15 pm50 °FPassing clouds.6 mph58%30.25 "Hg10 mi
4:55 pm50 °FPassing clouds.7 mph58%30.25 "Hg10 mi
4:35 pm52 °FPartly sunny.7 mph54%30.25 "Hg10 mi
4:15 pm54 °FPartly sunny.9 mph51%30.24 "Hg10 mi
3:55 pm54 °FPartly sunny.8 mph51%30.24 "Hg10 mi
3:35 pm54 °FScattered clouds.9 mph51%30.25 "Hg10 mi
3:15 pm54 °FPassing clouds.9 mph51%30.25 "Hg10 mi
2:55 pm54 °FPassing clouds.10 mph47%30.25 "Hg10 mi
2:35 pm54 °FSunny.9 mph51%30.25 "Hg10 mi
2:15 pm54 °FScattered clouds.10 mph47%30.24 "Hg10 mi
1:55 pm54 °FPartly sunny.10 mph47%30.24 "Hg10 mi
1:35 pm54 °FPartly sunny.10 mph47%30.24 "Hg10 mi
1:15 pm54 °FPartly sunny.9 mph47%30.24 "Hg10 mi
12:55 pm54 °FPartly sunny.9 mph44%30.24 "Hg10 mi
12:35 pm54 °FPartly sunny.10 mph44%30.24 "Hg10 mi
11:55 am52 °FPartly sunny.6 mph47%30.26 "Hg10 mi
11:35 am52 °FPartly sunny.10 mph47%30.27 "Hg10 mi
10:55 am50 °FOvercast.8 mph47%30.28 "Hg10 mi
10:35 am50 °FOvercast.6 mph47%30.29 "Hg10 mi
10:15 am48 °FOvercast.7 mph50%30.29 "Hg10 mi
9:55 am48 °FPartly sunny.9 mph46%30.29 "Hg10 mi
9:35 am48 °FScattered clouds.8 mph46%30.27 "Hg10 mi
9:15 am48 °FPartly sunny.9 mph46%30.27 "Hg10 mi
8:55 am48 °FPartly sunny.6 mph46%30.26 "Hg10 mi
8:35 am48 °FPartly sunny.8 mph43%30.26 "Hg10 mi
8:15 am46 °FMostly cloudy.6 mph46%30.25 "Hg10 mi
7:55 am46 °FOvercast.7 mph46%30.25 "Hg10 mi
7:35 am46 °FOvercast.8 mph46%30.24 "Hg10 mi
7:15 am45 °FOvercast.7 mph49%30.23 "Hg10 mi
6:55 am43 °FOvercast.7 mph57%30.23 "Hg10 mi
6:35 am43 °FOvercast.6 mph53%30.22 "Hg10 mi
5:55 am45 °FOvercast.5 mph46%30.21 "Hg10 mi
5:35 am43 °FOvercast.6 mph53%30.21 "Hg10 mi
5:15 am43 °FOvercast.7 mph53%30.21 "Hg10 mi
4:55 am43 °FOvercast.7 mph53%30.20 "Hg10 mi
4:35 am43 °FOvercast.7 mph53%30.20 "Hg10 mi
4:15 am43 °FOvercast.9 mph53%30.19 "Hg10 mi
3:55 am43 °FOvercast.6 mph53%30.19 "Hg10 mi
3:35 am43 °FOvercast.7 mph53%30.19 "Hg10 mi
3:15 am43 °FOvercast.7 mph53%30.20 "Hg10 mi
2:55 am43 °FOvercast.6 mph53%30.19 "Hg10 mi
2:35 am43 °FOvercast.6 mph53%30.19 "Hg10 mi
2:15 am43 °FOvercast.6 mph53%30.19 "Hg10 mi
1:35 am43 °FOvercast.6 mph53%30.18 "Hg10 mi
1:15 am41 °FOvercast.7 mph57%30.17 "Hg10 mi
12:55 am41 °FPassing clouds.7 mph57%30.16 "Hg10 mi
12:35 am43 °FMostly cloudy.7 mph53%30.15 "Hg10 mi
12:15 am41 °FPassing clouds.7 mph57%30.15 "Hg10 mi
11:55 pm
Mon, Jan 18
41 °FPassing clouds.7 mph57%30.15 "Hg10 mi
11:35 pm41 °FPassing clouds.6 mph57%30.15 "Hg10 mi
11:15 pm41 °FClear.6 mph57%30.15 "Hg10 mi
10:55 pm43 °FClear.7 mph53%30.15 "Hg10 mi
10:35 pm41 °FPassing clouds.7 mph61%30.14 "Hg10 mi
10:15 pm41 °FPassing clouds.7 mph61%30.14 "Hg10 mi
Weather by CustomWeather, © 2021

See weather overview